This is the latest recevied weather packets stored in our database for station/object DK6GC-10. If no packets are shown the sender has not sent any weather packets the latest 10 day(s).
| Time | Temp. | Humidity | Pressure | Rain* | Wind** | Luminosity | Snow |
|---|---|---|---|---|---|---|---|
| 1787855420 | 25° C | 59% | 1010.7 hPa | - | - | - | - |
| 1787854519 | 25.56° C | 57% | 1010.9 hPa | - | - | - | - |
| 1787853622 | 26.11° C | 52% | 1011 hPa | - | - | - | - |
| 1787852721 | 26.11° C | 55% | 1011.4 hPa | - | - | - | - |
| 1787851821 | 26.67° C | 52% | 1011.1 hPa | - | - | - | - |
| 1787850921 | 26.11° C | 58% | 1011.5 hPa | - | - | - | - |
| 1787850021 | 26.67° C | 60% | 1011.7 hPa | - | - | - | - |
| 1787849121 | 27.78° C | 57% | 1012.4 hPa | - | - | - | - |
| 1787848221 | 28.33° C | 55% | 1012.4 hPa | - | - | - | - |
| 1787847320 | 28.89° C | 52% | 1012.3 hPa | - | - | - | - |
| 1787846420 | 28.33° C | 49% | 1012.4 hPa | - | - | - | - |
| 1787845520 | 28.89° C | 53% | 1012.4 hPa | - | - | - | - |
| 1787844620 | 30° C | 50% | 1012.6 hPa | - | - | - | - |
| 1787843720 | 29.44° C | 52% | 1012.8 hPa | - | - | - | - |
| 1787842820 | 30.56° C | 43% | 1012.8 hPa | - | - | - | - |
| 1787841919 | 30.56° C | 43% | 1012.8 hPa | - | - | - | - |
| 1787841019 | 30.56° C | 45% | 1012.8 hPa | - | - | - | - |
| 1787840119 | 30.56° C | 45% | 1012.7 hPa | - | - | - | - |
| 1787839218 | 30.56° C | 43% | 1012.6 hPa | - | - | - | - |
| 1787838318 | 30.56° C | 44% | 1012.6 hPa | - | - | - | - |
| 1787837418 | 30.56° C | 42% | 1012.8 hPa | - | - | - | - |
| 1787836518 | 30° C | 45% | 1012.8 hPa | - | - | - | - |
| 1787835618 | 30.56° C | 42% | 1012.8 hPa | - | - | - | - |
| 1787834718 | 30° C | 46% | 1013.1 hPa | - | - | - | - |
| 1787833817 | 29.44° C | 48% | 1013.1 hPa | - | - | - | - |
* Rain since midnight (hover to see other rain measurements)
** Current wind speed in m/s (hover to see current wind gust speed)